Time;durP1;ratioP1;P1;durP2;ratioP2;P2;SDS_P1;SDS_P2;PMS_P1;PMS_P2;Temp;Humidity;BMP_temperature;BMP_pressure;BME280_temperature;BME280_humidity;BME280_pressure;Samples;Min_cycle;Max_cycle;Signal;HPM_P1;HPM_P2
2023/06/24 00:01:31;;;;;;;6.85;4.05;;;;;;;;;;5037967;28;20530;-75
2023/06/24 00:03:57;;;;;;;4.63;3.78;;;;;;;;;;5033390;28;20034;-76
2023/06/24 00:06:25;;;;;;;8.77;3.70;;;;;;;;;;5046707;28;20587;-75
2023/06/24 00:08:51;;;;;;;2.83;2.55;;;;;;;;;;5042876;28;20364;-75
2023/06/24 00:11:18;;;;;;;5.13;3.30;;;;;;;;;;5040437;28;20147;-76
2023/06/24 00:13:44;;;;;;;3.53;3.22;;;;;;;;;;5027086;28;20045;-75
2023/06/24 00:16:10;;;;;;;3.65;3.35;;;;;;;;;;5028214;28;20048;-76
2023/06/24 00:18:37;;;;;;;3.78;3.38;;;;;;;;;;5030021;28;20183;-76
2023/06/24 00:21:03;;;;;;;4.60;3.40;;;;;;;;;;5037988;28;20029;-76
2023/06/24 00:23:35;;;;;;;3.80;3.33;;;;;;;;;;5037971;28;20551;-75
2023/06/24 00:26:01;;;;;;;7.15;3.50;;;;;;;;;;5030834;28;20072;-75
2023/06/24 00:28:27;;;;;;;6.85;4.25;;;;;;;;;;5031539;28;20037;-76
2023/06/24 00:30:52;;;;;;;4.32;3.50;;;;;;;;;;5032693;28;20526;-76
2023/06/24 00:33:19;;;;;;;5.82;4.13;;;;;;;;;;5031173;28;20037;-76
2023/06/24 00:35:44;;;;;;;9.23;3.88;;;;;;;;;;5035334;28;20021;-76
2023/06/24 00:38:10;;;;;;;6.45;3.97;;;;;;;;;;5033418;28;20052;-75
2023/06/24 00:40:35;;;;;;;5.95;4.18;;;;;;;;;;5032974;28;20120;-75
2023/06/24 00:43:01;;;;;;;4.63;4.10;;;;;;;;;;5034949;28;20103;-75
2023/06/24 00:45:27;;;;;;;6.72;4.28;;;;;;;;;;5032657;28;20038;-76
2023/06/24 00:47:55;;;;;;;4.63;4.18;;;;;;;;;;5037780;28;20029;-76
2023/06/24 00:50:20;;;;;;;5.07;4.13;;;;;;;;;;5036441;28;20036;-76
2023/06/24 00:52:47;;;;;;;6.60;5.22;;;;;;;;;;5032402;28;20045;-76
2023/06/24 00:55:14;;;;;;;5.65;4.28;;;;;;;;;;5036915;28;20029;-76
2023/06/24 00:57:42;;;;;;;4.90;4.03;;;;;;;;;;5037871;28;20064;-76
2023/06/24 01:00:18;;;;;;;6.03;4.28;;;;;;;;;;5034726;28;20029;-76
2023/06/24 01:02:44;;;;;;;6.07;4.15;;;;;;;;;;5033384;28;20116;-75
2023/06/24 01:05:11;;;;;;;4.00;3.33;;;;;;;;;;5034857;28;20137;-76
2023/06/24 01:07:37;;;;;;;4.30;3.42;;;;;;;;;;5048823;28;20041;-76
2023/06/24 01:10:07;;;;;;;4.57;3.95;;;;;;;;;;5032238;28;20503;-75
2023/06/24 01:12:38;;;;;;;7.32;4.38;;;;;;;;;;5032094;28;20551;-75
2023/06/24 01:15:05;;;;;;;3.42;3.13;;;;;;;;;;5038150;28;20035;-75
2023/06/24 01:17:35;;;;;;;4.10;3.65;;;;;;;;;;5044903;28;20032;-75
2023/06/24 01:20:10;;;;;;;8.50;3.90;;;;;;;;;;5041159;28;20746;-75
2023/06/24 01:22:54;;;;;;;6.10;3.92;;;;;;;;;;5040070;28;20072;-75
2023/06/24 01:25:41;;;;;;;4.13;3.40;;;;;;;;;;5027078;28;20034;-75
2023/06/24 01:28:33;;;;;;;3.90;3.50;;;;;;;;;;5029352;28;20117;-75
2023/06/24 01:31:36;;;;;;;11.57;3.95;;;;;;;;;;5034421;28;20520;-75
2023/06/24 01:34:14;;;;;;;3.95;3.53;;;;;;;;;;5033714;28;20392;-75
2023/06/24 01:36:45;;;;;;;5.57;4.10;;;;;;;;;;5031867;28;20038;-75
2023/06/24 01:39:14;;;;;;;5.47;3.30;;;;;;;;;;5035587;28;20084;-75
2023/06/24 01:41:47;;;;;;;4.43;3.75;;;;;;;;;;5033030;28;20037;-75
2023/06/24 01:44:15;;;;;;;5.80;3.92;;;;;;;;;;5022185;28;20090;-75
2023/06/24 01:46:41;;;;;;;3.97;3.22;;;;;;;;;;5031962;28;20030;-75
2023/06/24 01:49:09;;;;;;;5.07;3.67;;;;;;;;;;5047605;28;20067;-75
2023/06/24 01:51:36;;;;;;;4.22;3.83;;;;;;;;;;5042900;28;20052;-75
2023/06/24 01:54:05;;;;;;;4.68;3.80;;;;;;;;;;5030830;28;20033;-75
2023/06/24 01:56:32;;;;;;;9.48;3.75;;;;;;;;;;5021145;28;20034;-75
2023/06/24 01:59:00;;;;;;;11.88;3.80;;;;;;;;;;5041800;28;20136;-75
2023/06/24 02:01:26;;;;;;;5.57;4.22;;;;;;;;;;5036716;28;20753;-75
2023/06/24 02:03:52;;;;;;;5.25;3.85;;;;;;;;;;5031458;28;20116;-75
2023/06/24 02:06:19;;;;;;;4.65;3.72;;;;;;;;;;5030546;28;20025;-75
2023/06/24 02:08:48;;;;;;;4.57;3.50;;;;;;;;;;5038546;28;20025;-75
2023/06/24 02:11:15;;;;;;;4.97;3.42;;;;;;;;;;5035793;28;20421;-75
2023/06/24 02:13:42;;;;;;;4.78;3.72;;;;;;;;;;5033699;28;20048;-75
2023/06/24 02:16:09;;;;;;;6.47;4.30;;;;;;;;;;5040733;28;20131;-75
2023/06/24 02:18:37;;;;;;;4.50;3.42;;;;;;;;;;5040048;28;20037;-75
2023/06/24 02:21:04;;;;;;;4.30;3.90;;;;;;;;;;5020085;28;20035;-75
2023/06/24 02:23:29;;;;;;;3.55;3.25;;;;;;;;;;5035812;28;20032;-75
2023/06/24 02:25:55;;;;;;;4.97;4.05;;;;;;;;;;5037435;28;20041;-75
2023/06/24 02:28:22;;;;;;;4.35;3.63;;;;;;;;;;5018019;28;20064;-75
2023/06/24 02:30:49;;;;;;;4.63;3.75;;;;;;;;;;5042942;28;20395;-75
2023/06/24 02:33:14;;;;;;;3.85;3.40;;;;;;;;;;5039055;28;20411;-75
2023/06/24 02:35:41;;;;;;;4.57;3.83;;;;;;;;;;5022441;28;20112;-75
2023/06/24 02:38:07;;;;;;;9.10;4.07;;;;;;;;;;5038314;28;20041;-75
2023/06/24 02:40:33;;;;;;;4.30;3.90;;;;;;;;;;5035847;28;20030;-75
2023/06/24 02:43:00;;;;;;;4.88;3.50;;;;;;;;;;5041166;28;20507;-75
2023/06/24 02:45:26;;;;;;;4.45;3.50;;;;;;;;;;5031125;28;20026;-75
2023/06/24 02:47:52;;;;;;;4.63;3.80;;;;;;;;;;5024602;28;20050;-75
2023/06/24 02:50:18;;;;;;;4.90;3.78;;;;;;;;;;5038628;28;20041;-75
2023/06/24 02:52:44;;;;;;;4.28;3.47;;;;;;;;;;5019029;28;20042;-75
2023/06/24 02:55:09;;;;;;;3.83;3.47;;;;;;;;;;5010789;28;20037;-75
2023/06/24 02:57:36;;;;;;;7.80;3.72;;;;;;;;;;5039411;28;20519;-75
2023/06/24 03:00:05;;;;;;;4.80;3.53;;;;;;;;;;5042312;28;20029;-75
2023/06/24 03:02:32;;;;;;;4.40;4.00;;;;;;;;;;5009473;28;20063;-75
2023/06/24 03:04:58;;;;;;;6.85;3.28;;;;;;;;;;5030803;28;20044;-75
2023/06/24 03:07:24;;;;;;;4.60;3.78;;;;;;;;;;5029959;28;20479;-75
2023/06/24 03:09:50;;;;;;;4.05;3.55;;;;;;;;;;5019307;28;20415;-75
2023/06/24 03:12:15;;;;;;;6.30;3.90;;;;;;;;;;5029817;28;20037;-75
2023/06/24 03:14:41;;;;;;;4.95;3.90;;;;;;;;;;5028154;28;20083;-75
2023/06/24 03:17:06;;;;;;;4.63;3.85;;;;;;;;;;5030939;28;20474;-75
2023/06/24 03:19:31;;;;;;;7.00;3.95;;;;;;;;;;5037778;28;20045;-75
2023/06/24 03:21:57;;;;;;;4.88;3.60;;;;;;;;;;5037855;28;20527;-75
2023/06/24 03:24:22;;;;;;;7.53;4.15;;;;;;;;;;5020378;28;20040;-75
2023/06/24 03:26:47;;;;;;;4.50;4.10;;;;;;;;;;5033279;28;20033;-75
2023/06/24 03:29:13;;;;;;;4.68;3.70;;;;;;;;;;5014750;28;20040;-75
2023/06/24 03:31:43;;;;;;;8.23;4.15;;;;;;;;;;5037874;28;20506;-75
2023/06/24 03:34:09;;;;;;;5.78;4.07;;;;;;;;;;5040255;28;20037;-75
2023/06/24 03:36:34;;;;;;;5.68;3.65;;;;;;;;;;5030433;28;20536;-75
2023/06/24 03:38:59;;;;;;;4.82;3.85;;;;;;;;;;5009959;28;20052;-75
2023/06/24 03:41:26;;;;;;;6.95;3.50;;;;;;;;;;5039038;28;20037;-75
2023/06/24 03:43:51;;;;;;;4.20;3.72;;;;;;;;;;5042586;28;20460;-75
2023/06/24 03:46:16;;;;;;;3.28;2.90;;;;;;;;;;5032688;28;20191;-75
2023/06/24 03:48:42;;;;;;;12.30;3.70;;;;;;;;;;5035519;28;20029;-75
2023/06/24 03:51:08;;;;;;;15.45;4.03;;;;;;;;;;5033219;28;20026;-75
2023/06/24 03:53:33;;;;;;;4.00;3.20;;;;;;;;;;5031855;28;20052;-75
2023/06/24 03:55:59;;;;;;;3.92;3.53;;;;;;;;;;5038917;28;20048;-75
2023/06/24 03:58:24;;;;;;;4.32;3.47;;;;;;;;;;5027537;28;20041;-75
2023/06/24 04:00:50;;;;;;;6.40;3.85;;;;;;;;;;5038104;28;20082;-75
2023/06/24 04:03:18;;;;;;;6.03;3.33;;;;;;;;;;5044388;28;20025;-75
2023/06/24 04:05:43;;;;;;;4.18;3.60;;;;;;;;;;5048134;28;20395;-75
2023/06/24 04:08:09;;;;;;;4.03;3.55;;;;;;;;;;5041654;28;20403;-75
2023/06/24 04:10:34;;;;;;;3.63;3.28;;;;;;;;;;5034628;28;20030;-75
2023/06/24 04:12:59;;;;;;;3.63;3.20;;;;;;;;;;5041874;28;20117;-75
2023/06/24 04:15:24;;;;;;;5.10;4.18;;;;;;;;;;5046977;28;20040;-75
2023/06/24 04:17:50;;;;;;;3.92;3.53;;;;;;;;;;5048416;28;20550;-75
2023/06/24 04:20:15;;;;;;;3.83;3.33;;;;;;;;;;5048981;28;20049;-75
2023/06/24 04:22:41;;;;;;;4.85;3.83;;;;;;;;;;5047364;28;20037;-75
2023/06/24 04:25:07;;;;;;;6.90;4.60;;;;;;;;;;5041539;28;20050;-75
2023/06/24 04:27:33;;;;;;;4.90;4.05;;;;;;;;;;5036561;28;20080;-75
2023/06/24 04:30:00;;;;;;;5.88;4.05;;;;;;;;;;5043086;28;20296;-75
2023/06/24 04:32:25;;;;;;;4.22;3.38;;;;;;;;;;5036470;28;20025;-75
2023/06/24 04:34:51;;;;;;;5.22;4.03;;;;;;;;;;5045913;28;20560;-75
2023/06/24 04:37:16;;;;;;;3.78;3.42;;;;;;;;;;5048226;28;20041;-75
2023/06/24 04:39:43;;;;;;;4.07;3.58;;;;;;;;;;5021953;28;20045;-75
2023/06/24 04:42:08;;;;;;;4.68;3.67;;;;;;;;;;5046105;28;20039;-75
2023/06/24 04:44:34;;;;;;;6.45;3.47;;;;;;;;;;5042190;28;20029;-75
2023/06/24 04:46:59;;;;;;;6.50;4.05;;;;;;;;;;5042930;28;20056;-75
2023/06/24 04:49:24;;;;;;;5.20;3.42;;;;;;;;;;5044506;28;20116;-75
2023/06/24 04:51:49;;;;;;;3.85;3.25;;;;;;;;;;5038911;28;20057;-75
2023/06/24 04:54:15;;;;;;;4.20;3.80;;;;;;;;;;5036738;28;20032;-75
2023/06/24 04:56:41;;;;;;;3.90;3.53;;;;;;;;;;5041301;28;20021;-75
2023/06/24 04:59:06;;;;;;;5.30;3.95;;;;;;;;;;5018288;28;20037;-75
2023/06/24 05:01:31;;;;;;;4.82;3.70;;;;;;;;;;5036870;28;20055;-75
2023/06/24 05:03:58;;;;;;;5.25;4.00;;;;;;;;;;5038848;28;20140;-75
2023/06/24 05:06:23;;;;;;;11.13;4.28;;;;;;;;;;5041516;28;20131;-75
2023/06/24 05:08:48;;;;;;;3.67;3.33;;;;;;;;;;5042639;28;20048;-75
2023/06/24 05:11:14;;;;;;;5.82;3.88;;;;;;;;;;5040586;28;20037;-75
2023/06/24 05:13:40;;;;;;;4.50;3.40;;;;;;;;;;5037618;28;20037;-75
2023/06/24 05:16:05;;;;;;;4.13;3.53;;;;;;;;;;5033291;28;20162;-75
2023/06/24 05:18:30;;;;;;;3.38;3.08;;;;;;;;;;5032926;28;20408;-75
2023/06/24 05:20:56;;;;;;;6.78;3.38;;;;;;;;;;5039874;28;20046;-75
2023/06/24 05:23:21;;;;;;;5.30;3.67;;;;;;;;;;5035221;28;20525;-75
2023/06/24 05:25:47;;;;;;;5.28;3.58;;;;;;;;;;5031892;28;20029;-75
2023/06/24 05:28:12;;;;;;;4.43;3.28;;;;;;;;;;5029370;28;20572;-75
2023/06/24 05:30:37;;;;;;;4.47;3.72;;;;;;;;;;5035227;28;20069;-75
2023/06/24 05:33:03;;;;;;;5.68;3.92;;;;;;;;;;5027987;28;20057;-75
2023/06/24 05:35:28;;;;;;;3.85;3.30;;;;;;;;;;5033555;28;20021;-75
2023/06/24 05:37:53;;;;;;;6.50;3.63;;;;;;;;;;5026267;28;20029;-75
2023/06/24 05:40:18;;;;;;;4.53;3.97;;;;;;;;;;5019131;28;20037;-75
2023/06/24 05:42:44;;;;;;;4.82;3.38;;;;;;;;;;5022895;28;20471;-75
2023/06/24 05:45:09;;;;;;;10.38;3.55;;;;;;;;;;5024380;28;20030;-75
2023/06/24 05:47:35;;;;;;;3.90;3.47;;;;;;;;;;5030584;28;20017;-75
2023/06/24 05:50:00;;;;;;;3.85;3.17;;;;;;;;;;5011484;28;21557;-75
2023/06/24 05:52:25;;;;;;;4.68;3.45;;;;;;;;;;5030723;28;20571;-75
2023/06/24 05:54:50;;;;;;;6.30;3.20;;;;;;;;;;5029493;28;20040;-76
2023/06/24 05:57:16;;;;;;;6.68;3.67;;;;;;;;;;5027216;28;20041;-76
2023/06/24 05:59:41;;;;;;;4.15;3.17;;;;;;;;;;5027630;28;20036;-75
2023/06/24 06:02:07;;;;;;;3.60;3.20;;;;;;;;;;5027831;28;20033;-76
2023/06/24 06:04:32;;;;;;;4.40;3.30;;;;;;;;;;5033449;28;20037;-73
2023/06/24 06:06:57;;;;;;;5.10;3.60;;;;;;;;;;5031969;28;20437;-75
2023/06/24 06:09:23;;;;;;;7.10;3.83;;;;;;;;;;5030490;28;20038;-76
2023/06/24 06:11:48;;;;;;;4.22;3.50;;;;;;;;;;5027331;28;20413;-76
2023/06/24 06:14:13;;;;;;;5.00;3.58;;;;;;;;;;5024284;28;20167;-75
2023/06/24 06:16:39;;;;;;;3.80;3.17;;;;;;;;;;5032847;28;20491;-76
2023/06/24 06:19:07;;;;;;;5.45;3.28;;;;;;;;;;5030512;28;20041;-76
2023/06/24 06:21:32;;;;;;;3.50;3.13;;;;;;;;;;5026880;28;20191;-76
2023/06/24 06:23:58;;;;;;;4.57;3.15;;;;;;;;;;5012364;28;21386;-76
2023/06/24 06:26:23;;;;;;;4.13;3.70;;;;;;;;;;5026780;28;20052;-76
2023/06/24 06:28:49;;;;;;;5.47;3.00;;;;;;;;;;5026769;28;20052;-76
2023/06/24 06:31:15;;;;;;;3.30;3.00;;;;;;;;;;5028981;28;20037;-76
2023/06/24 06:33:40;;;;;;;5.40;3.40;;;;;;;;;;5027815;28;20156;-76
2023/06/24 06:36:06;;;;;;;3.65;3.00;;;;;;;;;;5027278;28;20033;-76
2023/06/24 06:38:33;;;;;;;4.75;3.28;;;;;;;;;;5030819;28;20029;-76
2023/06/24 06:40:59;;;;;;;5.82;3.30;;;;;;;;;;5030950;28;20033;-76
2023/06/24 06:43:24;;;;;;;6.00;3.10;;;;;;;;;;5030773;28;20148;-76
2023/06/24 06:45:49;;;;;;;4.15;3.50;;;;;;;;;;5030363;28;20599;-76
2023/06/24 06:48:14;;;;;;;4.57;3.35;;;;;;;;;;5028908;28;20033;-76
2023/06/24 06:50:40;;;;;;;3.60;3.10;;;;;;;;;;5034601;28;20104;-75
2023/06/24 06:53:05;;;;;;;4.38;2.97;;;;;;;;;;5021870;28;20064;-74
2023/06/24 06:55:30;;;;;;;3.90;3.40;;;;;;;;;;5027925;28;20033;-74
2023/06/24 06:57:55;;;;;;;4.70;3.08;;;;;;;;;;5030511;28;20033;-74
2023/06/24 07:00:21;;;;;;;4.80;3.40;;;;;;;;;;5030079;28;20104;-74
2023/06/24 07:02:46;;;;;;;4.80;3.15;;;;;;;;;;5027834;28;20023;-74
2023/06/24 07:05:11;;;;;;;5.40;3.20;;;;;;;;;;5038597;28;20033;-74
2023/06/24 07:07:38;;;;;;;3.42;3.10;;;;;;;;;;5027973;28;20494;-74
2023/06/24 07:10:04;;;;;;;3.75;3.13;;;;;;;;;;5031336;28;20033;-75
2023/06/24 07:12:29;;;;;;;4.05;3.10;;;;;;;;;;5032844;28;20073;-75
2023/06/24 07:14:54;;;;;;;4.60;3.20;;;;;;;;;;5037628;28;20117;-75
2023/06/24 07:17:19;;;;;;;4.32;3.25;;;;;;;;;;5027784;28;20045;-75
2023/06/24 07:19:45;;;;;;;4.68;2.90;;;;;;;;;;5027590;28;20079;-75
2023/06/24 07:22:10;;;;;;;4.50;3.38;;;;;;;;;;5036424;28;20037;-75
2023/06/24 07:24:35;;;;;;;3.25;2.95;;;;;;;;;;5027403;28;20564;-75
2023/06/24 07:27:01;;;;;;;3.58;3.25;;;;;;;;;;5025999;28;20025;-75
2023/06/24 07:29:26;;;;;;;3.90;3.00;;;;;;;;;;5025961;28;20049;-75
2023/06/24 07:31:51;;;;;;;3.83;3.47;;;;;;;;;;5027746;28;20503;-75
2023/06/24 07:34:17;;;;;;;3.45;2.92;;;;;;;;;;5023167;28;20042;-75
2023/06/24 07:36:42;;;;;;;6.03;3.17;;;;;;;;;;5024849;28;20029;-75
2023/06/24 07:39:07;;;;;;;3.38;2.80;;;;;;;;;;5017122;28;20475;-75
2023/06/24 07:41:33;;;;;;;5.40;2.95;;;;;;;;;;4990985;28;20033;-75
2023/06/24 07:43:58;;;;;;;3.40;2.80;;;;;;;;;;5023733;28;20598;-75
2023/06/24 07:46:23;;;;;;;3.20;2.90;;;;;;;;;;5028390;28;20033;-75
2023/06/24 07:48:49;;;;;;;3.60;3.25;;;;;;;;;;5031239;28;20040;-75
2023/06/24 07:51:14;;;;;;;3.05;2.75;;;;;;;;;;5029715;28;20103;-75
2023/06/24 07:53:39;;;;;;;3.83;3.38;;;;;;;;;;5035221;28;20047;-75
2023/06/24 07:56:04;;;;;;;3.78;3.00;;;;;;;;;;5034810;28;20029;-75
2023/06/24 07:58:30;;;;;;;2.90;2.70;;;;;;;;;;5040364;28;20037;-75
2023/06/24 08:00:55;;;;;;;3.00;2.80;;;;;;;;;;5029449;28;20029;-75
2023/06/24 08:03:21;;;;;;;3.10;2.80;;;;;;;;;;5070631;22;20060;-77
2023/06/24 08:05:47;;;;;;;3.53;3.22;;;;;;;;;;5063978;28;20024;-77
2023/06/24 08:08:12;;;;;;;3.75;3.42;;;;;;;;;;5073972;28;20059;-77
2023/06/24 08:10:37;;;;;;;6.47;2.90;;;;;;;;;;5056401;28;20120;-79
2023/06/24 08:13:02;;;;;;;2.97;2.78;;;;;;;;;;5051858;28;20521;-79
2023/06/24 08:15:28;;;;;;;5.53;3.28;;;;;;;;;;5060582;28;20033;-79
2023/06/24 08:17:54;;;;;;;4.03;3.22;;;;;;;;;;5050503;28;20087;-79
2023/06/24 08:20:23;;;;;;;3.78;3.42;;;;;;;;;;5036613;28;20037;-78
2023/06/24 08:22:49;;;;;;;3.72;3.35;;;;;;;;;;5032177;28;20049;-78
2023/06/24 08:25:14;;;;;;;2.90;2.70;;;;;;;;;;5034514;28;20033;-78
2023/06/24 08:27:40;;;;;;;3.33;3.03;;;;;;;;;;5040554;28;20057;-78
2023/06/24 08:30:06;;;;;;;3.70;3.15;;;;;;;;;;5048789;28;20025;-78
2023/06/24 08:32:32;;;;;;;5.28;3.00;;;;;;;;;;5051074;28;20024;-78
2023/06/24 08:34:57;;;;;;;3.20;2.92;;;;;;;;;;5052915;28;20029;-80
2023/06/24 08:37:22;;;;;;;4.35;3.50;;;;;;;;;;5034619;28;20072;-79
2023/06/24 08:39:48;;;;;;;2.97;2.60;;;;;;;;;;5059413;28;20037;-80
2023/06/24 08:42:13;;;;;;;4.38;3.30;;;;;;;;;;5045490;28;20299;-79
2023/06/24 08:44:38;;;;;;;3.30;3.00;;;;;;;;;;5066775;28;20075;-79
2023/06/24 08:47:04;;;;;;;2.90;2.65;;;;;;;;;;5053764;28;20124;-77
2023/06/24 08:49:30;;;;;;;3.50;3.20;;;;;;;;;;5050979;28;20033;-77
2023/06/24 08:52:12;;;;;;;4.05;2.90;;;;;;;;;;5036009;28;20040;-78
2023/06/24 08:54:40;;;;;;;10.35;3.00;;;;;;;;;;5057848;28;20037;-77
2023/06/24 08:57:07;;;;;;;3.33;3.05;;;;;;;;;;5049067;28;20017;-77
2023/06/24 08:59:36;;;;;;;3.05;2.75;;;;;;;;;;5039418;28;20033;-77
2023/06/24 09:02:02;;;;;;;150.80;12.13;;;;;;;;;;5056447;28;20033;-78
2023/06/24 09:04:27;;;;;;;3.17;2.60;;;;;;;;;;5057004;28;20426;-77
2023/06/24 09:06:52;;;;;;;4.63;2.70;;;;;;;;;;5038772;28;20041;-78
2023/06/24 09:09:22;;;;;;;3.25;2.58;;;;;;;;;;5065035;28;20364;-79
2023/06/24 09:11:55;;;;;;;3.72;2.60;;;;;;;;;;5056007;28;20031;-78
2023/06/24 09:14:21;;;;;;;3.38;3.08;;;;;;;;;;5056982;28;20037;-77
2023/06/24 09:17:06;;;;;;;3.33;2.88;;;;;;;;;;5041286;28;20041;-78
2023/06/24 09:19:36;;;;;;;6.72;3.03;;;;;;;;;;5058134;28;20048;-78
2023/06/24 09:22:03;;;;;;;11.45;3.22;;;;;;;;;;5058776;28;20147;-78
2023/06/24 09:24:33;;;;;;;7.18;3.10;;;;;;;;;;5042734;28;20507;-78
2023/06/24 09:26:58;;;;;;;3.13;2.75;;;;;;;;;;5037377;28;20029;-78
2023/06/24 09:29:28;;;;;;;3.75;3.00;;;;;;;;;;5045998;28;20037;-78
2023/06/24 09:31:55;;;;;;;2.95;2.65;;;;;;;;;;5034057;28;20528;-78
2023/06/24 09:34:21;;;;;;;3.60;3.28;;;;;;;;;;5063490;28;20036;-78
2023/06/24 09:36:56;;;;;;;9.25;2.92;;;;;;;;;;5042225;28;20110;-78
2023/06/24 09:39:28;;;;;;;3.90;2.70;;;;;;;;;;5045783;28;20390;-78
2023/06/24 09:41:53;;;;;;;4.10;3.17;;;;;;;;;;5052750;28;20031;-77
2023/06/24 09:44:19;;;;;;;3.67;3.05;;;;;;;;;;5060414;28;20041;-78
2023/06/24 09:46:45;;;;;;;3.83;3.20;;;;;;;;;;5038270;28;20029;-78
2023/06/24 09:49:11;;;;;;;7.20;3.30;;;;;;;;;;5043441;28;20036;-78
2023/06/24 09:51:44;;;;;;;3.22;2.88;;;;;;;;;;5040764;28;20108;-78
2023/06/24 09:54:11;;;;;;;4.03;2.90;;;;;;;;;;5039565;28;20025;-78
2023/06/24 09:56:39;;;;;;;3.63;3.33;;;;;;;;;;5058545;28;20461;-81
2023/06/24 09:59:05;;;;;;;3.58;3.28;;;;;;;;;;5044277;28;20119;-78
2023/06/24 10:01:38;;;;;;;3.58;3.05;;;;;;;;;;5041896;28;20033;-78
2023/06/24 10:04:04;;;;;;;4.30;3.15;;;;;;;;;;5049521;28;20072;-78
2023/06/24 10:06:30;;;;;;;4.82;3.00;;;;;;;;;;5061734;28;20040;-78
2023/06/24 10:08:56;;;;;;;3.30;3.00;;;;;;;;;;5054153;28;20458;-77
2023/06/24 10:11:21;;;;;;;2.65;2.45;;;;;;;;;;5053801;28;20048;-77
2023/06/24 10:13:47;;;;;;;3.42;3.00;;;;;;;;;;5038219;28;20422;-79
2023/06/24 10:16:12;;;;;;;4.80;3.13;;;;;;;;;;5055231;28;20034;-79
2023/06/24 10:18:39;;;;;;;5.88;2.90;;;;;;;;;;5045475;28;20558;-80
2023/06/24 10:21:06;;;;;;;5.85;3.10;;;;;;;;;;5052881;28;20378;-79
2023/06/24 10:23:55;;;;;;;2.90;2.70;;;;;;;;;;5044725;28;20039;-78
2023/06/24 10:26:35;;;;;;;4.45;3.25;;;;;;;;;;5057597;28;20072;-78
2023/06/24 10:29:06;;;;;;;3.10;2.80;;;;;;;;;;5051798;28;20143;-80
2023/06/24 10:31:40;;;;;;;4.15;2.83;;;;;;;;;;5058708;28;20032;-78
2023/06/24 10:34:38;;;;;;;4.88;2.88;;;;;;;;;;5063975;28;20036;-78
2023/06/24 10:37:22;;;;;;;4.70;3.10;;;;;;;;;;5062045;28;20116;-77
2023/06/24 10:39:54;;;;;;;3.05;2.75;;;;;;;;;;5064467;28;20060;-78
2023/06/24 10:42:38;;;;;;;4.03;2.80;;;;;;;;;;5061939;28;20107;-78
2023/06/24 10:45:09;;;;;;;3.28;2.70;;;;;;;;;;5030891;28;20474;-78
2023/06/24 10:47:36;;;;;;;2.90;2.60;;;;;;;;;;5056788;28;20041;-78
2023/06/24 10:50:03;;;;;;;3.03;2.72;;;;;;;;;;5054780;28;20036;-79
2023/06/24 10:52:29;;;;;;;3.35;3.05;;;;;;;;;;5036229;28;20526;-78
2023/06/24 10:54:57;;;;;;;3.63;2.80;;;;;;;;;;5039541;28;20579;-79
2023/06/24 10:57:27;;;;;;;2.67;2.47;;;;;;;;;;5036697;28;20049;-79
2023/06/24 10:59:54;;;;;;;3.03;2.70;;;;;;;;;;5072026;28;20029;-79
2023/06/24 11:02:21;;;;;;;2.92;2.63;;;;;;;;;;5037633;28;20395;-78
2023/06/24 11:04:54;;;;;;;3.10;2.63;;;;;;;;;;5066355;28;20443;-79
2023/06/24 11:07:21;;;;;;;2.92;2.53;;;;;;;;;;5060583;28;20064;-79
2023/06/24 11:09:54;;;;;;;2.90;2.67;;;;;;;;;;5056826;28;20116;-79
2023/06/24 11:12:25;;;;;;;3.05;2.80;;;;;;;;;;5054803;28;20024;-79
2023/06/24 11:14:50;;;;;;;3.42;3.08;;;;;;;;;;5055012;28;20043;-78
2023/06/24 11:17:15;;;;;;;4.10;2.92;;;;;;;;;;5052390;28;20029;-79
2023/06/24 11:19:41;;;;;;;4.97;2.42;;;;;;;;;;5063084;28;20139;-79
2023/06/24 11:22:07;;;;;;;3.20;2.90;;;;;;;;;;5054654;28;20514;-79
2023/06/24 11:24:33;;;;;;;3.67;3.10;;;;;;;;;;5045819;28;20046;-79
2023/06/24 11:26:59;;;;;;;4.10;2.90;;;;;;;;;;5037546;28;20111;-79
2023/06/24 11:29:24;;;;;;;2.88;2.58;;;;;;;;;;5037428;28;20068;-79
2023/06/24 11:31:50;;;;;;;4.63;3.08;;;;;;;;;;5046406;28;20475;-78
2023/06/24 11:34:16;;;;;;;4.28;3.38;;;;;;;;;;5057315;28;20123;-79
2023/06/24 11:36:42;;;;;;;3.00;2.72;;;;;;;;;;5039886;28;20061;-79
2023/06/24 11:39:07;;;;;;;3.80;3.10;;;;;;;;;;5052951;28;20037;-79
2023/06/24 11:41:33;;;;;;;3.17;2.88;;;;;;;;;;5037744;28;20044;-78
2023/06/24 11:43:59;;;;;;;2.72;2.50;;;;;;;;;;5055165;28;20119;-78
2023/06/24 11:46:28;;;;;;;2.75;2.55;;;;;;;;;;5059930;28;20058;-79
2023/06/24 11:49:06;;;;;;;2.78;2.50;;;;;;;;;;5030734;28;20037;-78
2023/06/24 11:51:32;;;;;;;4.18;2.95;;;;;;;;;;5053461;28;20032;-78
2023/06/24 11:54:05;;;;;;;2.92;2.70;;;;;;;;;;5055490;28;20071;-78
2023/06/24 11:56:41;;;;;;;3.30;3.00;;;;;;;;;;5039908;28;20047;-79
2023/06/24 11:59:17;;;;;;;3.17;2.50;;;;;;;;;;5034311;28;20041;-78
2023/06/24 12:01:43;;;;;;;6.05;2.80;;;;;;;;;;5055754;28;20036;-78
2023/06/24 12:04:15;;;;;;;2.90;2.63;;;;;;;;;;5058262;28;20032;-78
2023/06/24 12:06:41;;;;;;;5.18;2.70;;;;;;;;;;5043293;28;20115;-78
2023/06/24 12:09:08;;;;;;;6.82;2.83;;;;;;;;;;5044583;28;20044;-78
2023/06/24 12:11:33;;;;;;;3.67;2.70;;;;;;;;;;5036921;28;20025;-78
2023/06/24 12:13:58;;;;;;;2.92;2.72;;;;;;;;;;5036616;28;20051;-79
2023/06/24 12:16:24;;;;;;;2.90;2.65;;;;;;;;;;5031956;28;20032;-79
2023/06/24 12:18:50;;;;;;;3.10;2.70;;;;;;;;;;5059698;28;20461;-78
2023/06/24 12:21:15;;;;;;;4.72;3.03;;;;;;;;;;5054237;28;20059;-78
2023/06/24 12:23:40;;;;;;;10.05;2.60;;;;;;;;;;5047613;28;20036;-79
2023/06/24 12:26:06;;;;;;;4.57;2.38;;;;;;;;;;5030358;28;20051;-79
2023/06/24 12:28:31;;;;;;;2.75;2.55;;;;;;;;;;5040416;28;20037;-79
2023/06/24 12:30:56;;;;;;;3.38;2.80;;;;;;;;;;5043842;28;20579;-79
2023/06/24 12:33:22;;;;;;;4.47;2.35;;;;;;;;;;5061951;28;20044;-79
2023/06/24 12:35:48;;;;;;;3.58;2.78;;;;;;;;;;5060432;28;20021;-79
2023/06/24 12:38:13;;;;;;;4.70;2.80;;;;;;;;;;5063355;28;20100;-78
2023/06/24 12:40:39;;;;;;;2.95;2.75;;;;;;;;;;5060433;28;20399;-79
2023/06/24 12:43:04;;;;;;;5.97;2.80;;;;;;;;;;5048222;28;20037;-77
2023/06/24 12:45:29;;;;;;;5.82;2.88;;;;;;;;;;5045774;28;20033;-80
2023/06/24 12:47:55;;;;;;;4.05;2.95;;;;;;;;;;5043771;28;20104;-80
2023/06/24 12:50:20;;;;;;;6.57;3.00;;;;;;;;;;5050663;28;20031;-82
2023/06/24 12:52:45;;;;;;;9.80;3.30;;;;;;;;;;5062855;28;20521;-82
2023/06/24 12:55:12;;;;;;;3.25;2.92;;;;;;;;;;5053735;28;20503;-80
2023/06/24 12:57:37;;;;;;;2.95;2.75;;;;;;;;;;5045353;28;20121;-81
2023/06/24 13:00:06;;;;;;;3.55;3.25;;;;;;;;;;5040032;28;20048;-81
2023/06/24 13:02:32;;;;;;;3.08;2.78;;;;;;;;;;5057481;28;20032;-81
2023/06/24 13:04:57;;;;;;;9.48;3.25;;;;;;;;;;5053734;28;20425;-81
2023/06/24 13:07:23;;;;;;;3.40;3.10;;;;;;;;;;5042294;28;20037;-81
2023/06/24 13:09:48;;;;;;;3.40;3.10;;;;;;;;;;5044976;28;20101;-82
2023/06/24 13:12:13;;;;;;;3.28;2.85;;;;;;;;;;5070028;28;20070;-81
2023/06/24 13:14:39;;;;;;;3.95;3.40;;;;;;;;;;5062575;28;20491;-81
2023/06/24 13:17:04;;;;;;;3.97;3.08;;;;;;;;;;5047758;28;20040;-81
2023/06/24 13:19:30;;;;;;;3.03;2.83;;;;;;;;;;5056687;28;20033;-81
2023/06/24 13:21:55;;;;;;;6.72;3.03;;;;;;;;;;5069465;28;20036;-82
2023/06/24 13:24:20;;;;;;;2.90;2.60;;;;;;;;;;5039437;28;20044;-78
2023/06/24 13:26:46;;;;;;;3.70;3.00;;;;;;;;;;5039621;28;20021;-78
2023/06/24 13:29:11;;;;;;;3.40;3.10;;;;;;;;;;5065983;28;20121;-81
2023/06/24 13:31:36;;;;;;;4.60;2.92;;;;;;;;;;5047932;28;20098;-82
2023/06/24 13:34:02;;;;;;;3.05;2.85;;;;;;;;;;5040392;28;20029;-81
2023/06/24 13:36:31;;;;;;;3.75;3.15;;;;;;;;;;5068019;28;20039;-82
2023/06/24 13:38:57;;;;;;;5.28;2.95;;;;;;;;;;5046201;28;20028;-80
2023/06/24 13:41:22;;;;;;;3.00;2.80;;;;;;;;;;5038621;28;20036;-81
2023/06/24 13:43:47;;;;;;;3.42;3.05;;;;;;;;;;5047251;28;20380;-80
2023/06/24 13:46:13;;;;;;;3.20;2.97;;;;;;;;;;5047402;28;20028;-81
2023/06/24 13:48:38;;;;;;;2.95;2.75;;;;;;;;;;5058763;28;20025;-81
2023/06/24 13:51:03;;;;;;;2.97;2.55;;;;;;;;;;5046860;28;20106;-81
2023/06/24 13:53:28;;;;;;;3.53;2.97;;;;;;;;;;5047656;28;20025;-81
2023/06/24 13:55:54;;;;;;;4.75;3.00;;;;;;;;;;5042836;28;20041;-80
2023/06/24 13:58:19;;;;;;;2.90;2.70;;;;;;;;;;5062631;28;20036;-81
2023/06/24 14:00:45;;;;;;;4.45;3.13;;;;;;;;;;5057133;28;20037;-81
2023/06/24 14:03:10;;;;;;;6.75;3.10;;;;;;;;;;5041170;28;20449;-81
2023/06/24 14:05:35;;;;;;;3.20;2.92;;;;;;;;;;5041857;28;20025;-81
2023/06/24 14:08:01;;;;;;;3.30;3.00;;;;;;;;;;5041462;28;20041;-82
2023/06/24 14:10:26;;;;;;;2.70;2.50;;;;;;;;;;5057805;28;20036;-82
2023/06/24 14:12:51;;;;;;;4.07;3.30;;;;;;;;;;5038398;28;20037;-81
2023/06/24 14:15:16;;;;;;;4.07;3.25;;;;;;;;;;5056126;28;20025;-81
2023/06/24 14:17:42;;;;;;;4.15;3.17;;;;;;;;;;5058221;28;20604;-81
2023/06/24 14:20:07;;;;;;;3.55;3.22;;;;;;;;;;5059432;28;20157;-81
2023/06/24 14:22:33;;;;;;;3.83;3.20;;;;;;;;;;5048325;28;20032;-79
2023/06/24 14:24:58;;;;;;;3.35;3.10;;;;;;;;;;5052990;28;20037;-81
2023/06/24 14:27:23;;;;;;;4.10;3.10;;;;;;;;;;5035150;28;20041;-81
2023/06/24 14:29:49;;;;;;;5.57;3.17;;;;;;;;;;5036249;28;20024;-80
2023/06/24 14:32:14;;;;;;;4.72;3.00;;;;;;;;;;5048804;28;20029;-82
2023/06/24 14:34:39;;;;;;;3.38;3.00;;;;;;;;;;5035784;28;20131;-81
2023/06/24 14:37:05;;;;;;;3.08;2.78;;;;;;;;;;5036531;28;20053;-82
2023/06/24 14:39:30;;;;;;;3.83;3.00;;;;;;;;;;5036842;28;20044;-81
2023/06/24 14:41:55;;;;;;;5.53;3.45;;;;;;;;;;5053484;28;20047;-81